Airfield :
LOGIN :

Register | Disclaimer

   EN    FR    IT 

 










Legend :    VFR   Marginal VFR   IFR   Intensive IFR   Very Intensive IFR
Visi :
Ceiling :
>= 8 km
>= 3000ft
5 to 8 km
1000 to 3000 ft
1500m to 5 km
500 to 1000 ft
800 to 1500m
200 to 500 ft
< 800m
< 200 ft
Symbols :   Thunderstorms  Fog  Heavy snow  Heavy precipitations  Wind > 20 kt
SIGMETs :     Misc.  Thunderstorms  Icing  Turbulence  Mountain Waves  Volcanic Ashes







- Airport Elevation : 106 ft
- IATA code : NRN


EDLV - Weeze

CURRENT METAR :
  • 131250Z 21016G28KT 9999 -RA BKN010 05/04 Q0997

EXPIRED METARs :
  • 131220Z 21015KT 9999 -RA BKN010 04/04 Q0997
  • 131150Z 20016G26KT 8000 -RA BKN010 04/04 Q0998
  • 131120Z 20015G25KT 9999 -RA BKN012 04/03 Q0999
  • 131050Z 19015G27KT 9999 -RA BKN011 04/03 Q1000
  • 131020Z 19015G25KT 9000 -RA BKN012 05/04 Q1000

TAF TAF EDLV
Valid from the 13 at 12:00 until the 14 at 12:00 UTC


131100Z 1312/1412 20015G25KT 9999 BKN012
PROB30
TEMPO 1312/1314 21020G30KT RA
PROB40
TEMPO 1312/1408 BKN007
TEMPO 1319/1322 RA
TEMPO 1402/1405 SHRA BKN015TCU
TEMPO 1410/1412 24020G30KT
No reported NOTAMs for that airfield.



MET'MAP, your aeronautical weather chart ! - Copyright ORBIFLY December 2007 - Disclaimer

ORBIFLY MET'MAP TEAM :

Programming & Development : Alexandra Zaïnal
Concept & Development : Baudouin d'Aumeries
Co-Development & Prog : Marc-Olivier Méhu
Technical & hardware support : Manuel Goepfert

Contact : metmap@orbifly.com




SOURCES & CREDITS :

   NOAA